createdAt,value
2022-12-16T00:00:01.726Z,-8.27
2022-12-16T00:05:01.263Z,-8.24
2022-12-16T00:10:01.641Z,-8.3
2022-12-16T00:15:02.036Z,-8.35
2022-12-16T00:20:02.012Z,-8.44
2022-12-16T00:25:02.173Z,-8.62
2022-12-16T00:30:01.942Z,-8.86
2022-12-16T00:35:01.826Z,-9.03
2022-12-16T00:40:02.032Z,-8.96
2022-12-16T00:45:01.936Z,-9.32
2022-12-16T00:50:02.191Z,-9.4
2022-12-16T00:55:01.932Z,-9.47
2022-12-16T01:00:01.573Z,-9.68
2022-12-16T01:05:01.833Z,-9.81
2022-12-16T01:10:02.030Z,-9.68
2022-12-16T01:15:02.272Z,-9.47
2022-12-16T01:20:01.851Z,-9.61
2022-12-16T01:25:01.727Z,-9.26
2022-12-16T01:30:01.667Z,-9.44
2022-12-16T01:35:01.795Z,-9.51
2022-12-16T01:40:01.375Z,-9.31
2022-12-16T01:45:01.662Z,-8.96
2022-12-16T01:50:01.739Z,-9.08
2022-12-16T01:55:02.169Z,-8.92
2022-12-16T02:00:02.205Z,-8.55
2022-12-16T02:05:01.787Z,-8.85
2022-12-16T02:10:01.308Z,-8.92
2022-12-16T02:15:01.329Z,-8.89
2022-12-16T02:20:01.743Z,-8.9
2022-12-16T02:25:01.499Z,-8.96
2022-12-16T02:30:02.077Z,-9.04
2022-12-16T02:35:02.177Z,-9.11
2022-12-16T02:40:01.290Z,-8.98
2022-12-16T02:45:01.613Z,-8.92
2022-12-16T02:50:02.148Z,-8.97
2022-12-16T02:55:01.893Z,-8.97
2022-12-16T03:00:01.566Z,-9.02
2022-12-16T03:05:01.825Z,-9.27
2022-12-16T03:10:01.784Z,-9.33
2022-12-16T03:15:01.558Z,-9.46
2022-12-16T03:20:01.715Z,-9.55
2022-12-16T03:25:01.844Z,-9.46
2022-12-16T03:30:01.303Z,-9.54
2022-12-16T03:35:02.101Z,-9.59
2022-12-16T03:40:02.081Z,-9.45
2022-12-16T03:45:02.277Z,-9.26
2022-12-16T03:50:01.379Z,-9.45
2022-12-16T03:55:01.328Z,-9.46
2022-12-16T04:00:01.702Z,-9.43
2022-12-16T04:05:01.456Z,-9.45
2022-12-16T04:10:01.865Z,-9.49
2022-12-16T04:15:01.281Z,-9.41
2022-12-16T04:20:01.976Z,-9.25
2022-12-16T04:25:02.008Z,-9.39
2022-12-16T04:30:01.936Z,-9.56
2022-12-16T04:35:02.026Z,-9.73
2022-12-16T04:40:02.185Z,-9.76
2022-12-16T04:45:02.111Z,-9.79
2022-12-16T04:50:02.133Z,-9.77
2022-12-16T04:55:01.260Z,-9.52
2022-12-16T05:00:01.667Z,-9.17
2022-12-16T05:05:01.826Z,-9.39
2022-12-16T05:10:02.190Z,-9.37
2022-12-16T05:15:02.059Z,-9.38
2022-12-16T05:20:01.469Z,-9.33
2022-12-16T05:25:01.638Z,-9.33
2022-12-16T05:30:01.627Z,-9.27
2022-12-16T05:35:01.640Z,-9.38
2022-12-16T05:40:01.918Z,-9.4
2022-12-16T05:45:02.222Z,-9.31
2022-12-16T05:50:01.504Z,-9.32
2022-12-16T05:55:01.708Z,-9.37
2022-12-16T06:00:01.459Z,-9.32
2022-12-16T06:05:02.262Z,-9.29
2022-12-16T06:10:01.431Z,-9.2
2022-12-16T06:15:01.754Z,-9.32
2022-12-16T06:20:01.361Z,-9.39
2022-12-16T06:25:01.671Z,-9.25
2022-12-16T06:30:01.760Z,-9.09
2022-12-16T06:35:02.234Z,-9.23
2022-12-16T06:40:01.375Z,-8.94
2022-12-16T06:45:01.763Z,-9.09
2022-12-16T06:50:01.364Z,-9.01
2022-12-16T06:55:01.741Z,-8.89
2022-12-16T07:00:01.909Z,-8.95
2022-12-16T07:05:01.473Z,-9.01
2022-12-16T07:10:02.100Z,-8.99
2022-12-16T07:15:01.532Z,-8.9
2022-12-16T07:20:02.176Z,-8.75
2022-12-16T07:25:01.761Z,-8.78
2022-12-16T07:30:01.989Z,-8.92
2022-12-16T07:35:01.449Z,-9.05
2022-12-16T07:40:01.892Z,-9.2
2022-12-16T07:45:01.508Z,-9.25
2022-12-16T07:50:01.977Z,-9.25
2022-12-16T07:55:02.060Z,-9.2
2022-12-16T08:00:01.270Z,-9.3
2022-12-16T08:05:01.821Z,-9.29
2022-12-16T08:10:02.176Z,-9.34
2022-12-16T08:15:02.065Z,-9.33
2022-12-16T08:20:01.753Z,-9.4
2022-12-16T08:25:02.141Z,-9.4
2022-12-16T08:30:02.123Z,-9.38
2022-12-16T08:35:01.379Z,-9.25
2022-12-16T08:40:33.751Z,-9.25
2022-12-16T08:45:02.058Z,-9.17
2022-12-16T08:50:02.220Z,-8.71
2022-12-16T08:55:02.150Z,-8.79
2022-12-16T09:00:02.097Z,-8.65
2022-12-16T09:05:01.329Z,-8.36
2022-12-16T09:10:02.128Z,-8.06
2022-12-16T09:15:01.451Z,-8.13
2022-12-16T09:20:01.887Z,-7.93
2022-12-16T09:25:01.855Z,-7.75
2022-12-16T09:30:01.509Z,-7.5
2022-12-16T09:35:01.305Z,-7.34
2022-12-16T09:40:02.064Z,-7.17
2022-12-16T09:45:02.246Z,-6.92
2022-12-16T09:50:01.681Z,-6.39
2022-12-16T09:55:01.409Z,-6.41
2022-12-16T10:00:01.643Z,-6.37
2022-12-16T10:05:01.864Z,-6.22
2022-12-16T10:10:02.210Z,-5.91
2022-12-16T10:15:01.464Z,-5.97
2022-12-16T10:20:08.721Z,-5.75
2022-12-16T10:25:01.328Z,-5.75
2022-12-16T10:30:01.967Z,-5.56
2022-12-16T10:35:01.333Z,-5.44
2022-12-16T10:40:01.706Z,-5.27
2022-12-16T10:45:01.846Z,-5.2
2022-12-16T10:50:02.185Z,-5.13
2022-12-16T10:55:01.716Z,-5.07
2022-12-16T11:00:02.225Z,-4.95
2022-12-16T11:05:01.529Z,-4.76
2022-12-16T11:10:02.114Z,-4.59
2022-12-16T11:15:27.657Z,-4.45
2022-12-16T11:20:01.819Z,-4.4
2022-12-16T11:25:01.969Z,-4.35
2022-12-16T11:30:02.182Z,-4.29
2022-12-16T11:35:01.662Z,-4.06
2022-12-16T11:40:01.951Z,-3.94
2022-12-16T11:45:02.262Z,-3.8
2022-12-16T11:50:02.064Z,-3.8
2022-12-16T11:55:02.021Z,-3.75
2022-12-16T12:00:02.234Z,-3.67
2022-12-16T12:05:01.487Z,-3.55
2022-12-16T12:10:02.059Z,-3.56
2022-12-16T12:15:01.353Z,-3.54
2022-12-16T12:20:01.774Z,-3.5
2022-12-16T12:25:01.748Z,-3.48
2022-12-16T12:30:01.293Z,-3.47
2022-12-16T12:35:01.821Z,-3.42
2022-12-16T12:40:02.057Z,-3.41
2022-12-16T12:45:01.927Z,-3.31
2022-12-16T12:50:02.232Z,-3.26
2022-12-16T12:55:02.175Z,-3.26
2022-12-16T13:00:02.760Z,-3.3
2022-12-16T13:05:02.192Z,-3.23
2022-12-16T13:10:01.565Z,-3.23
2022-12-16T13:15:01.970Z,-3.25
2022-12-16T13:20:01.353Z,-3.26
2022-12-16T13:25:01.423Z,-3.23
2022-12-16T13:30:02.033Z,-3.26
2022-12-16T13:35:02.103Z,-3.25
2022-12-16T13:40:01.359Z,-3.23
2022-12-16T13:45:02.077Z,-3.23
2022-12-16T13:50:01.304Z,-3.22
2022-12-16T13:55:01.431Z,-3.2
2022-12-16T14:00:01.548Z,-3.26
2022-12-16T14:05:02.091Z,-3.25
2022-12-16T14:10:01.866Z,-3.31
2022-12-16T14:15:02.025Z,-3.24
2022-12-16T14:20:02.238Z,-3.26
2022-12-16T14:25:01.719Z,-3.34
2022-12-16T14:30:01.507Z,-3.39
2022-12-16T14:35:01.417Z,-3.41
2022-12-16T14:40:01.619Z,-3.48
2022-12-16T14:45:01.358Z,-3.48
2022-12-16T14:50:02.303Z,-3.57
2022-12-16T14:55:01.426Z,-3.71
2022-12-16T15:00:01.640Z,-3.77
2022-12-16T15:05:02.007Z,-3.82
2022-12-16T15:10:02.209Z,-3.84
2022-12-16T15:15:02.197Z,-3.96
2022-12-16T15:20:03.851Z,-3.82
2022-12-16T15:25:02.248Z,-4.22
2022-12-16T15:30:01.685Z,-4.04
2022-12-16T15:35:01.354Z,-4.22
2022-12-16T15:40:01.567Z,-4.36
2022-12-16T15:45:01.716Z,-4.1
2022-12-16T15:50:04.052Z,-4.07
2022-12-16T15:55:01.460Z,-4.04
2022-12-16T16:00:01.972Z,-4.01
2022-12-16T16:05:01.538Z,-3.94
2022-12-16T16:10:02.257Z,-3.97
2022-12-16T16:15:01.780Z,-3.9
2022-12-16T16:20:03.790Z,-3.84
2022-12-16T16:25:01.741Z,-3.94
2022-12-16T16:30:01.977Z,-3.86
2022-12-16T16:35:01.409Z,-3.76
2022-12-16T16:40:01.851Z,-3.55
2022-12-16T16:45:01.808Z,-3.66
2022-12-16T16:50:02.416Z,-3.62
2022-12-16T16:55:02.037Z,-3.49
2022-12-16T17:00:01.584Z,-3.53
2022-12-16T17:05:01.795Z,-3.42
2022-12-16T17:10:02.142Z,-3.42
2022-12-16T17:15:02.214Z,-3.42
2022-12-16T17:20:01.278Z,-3.49
2022-12-16T17:25:01.986Z,-3.43
2022-12-16T17:30:02.220Z,-3.38
2022-12-16T17:35:01.799Z,-3.34
2022-12-16T17:40:01.979Z,-3.38
2022-12-16T17:45:01.578Z,-3.41
2022-12-16T17:50:01.751Z,-3.28
2022-12-16T17:55:02.101Z,-3.27
2022-12-16T18:00:02.087Z,-3.25
2022-12-16T18:05:02.097Z,-3.11
2022-12-16T18:10:02.186Z,-3.01
2022-12-16T18:15:02.032Z,-2.95
2022-12-16T18:20:01.386Z,-2.93
2022-12-16T18:25:01.525Z,-2.92
2022-12-16T18:30:01.687Z,-2.94
2022-12-16T18:35:01.606Z,-2.77
2022-12-16T18:40:01.802Z,-2.72
2022-12-16T18:45:01.939Z,-2.66
2022-12-16T18:50:01.897Z,-2.69
2022-12-16T18:55:01.961Z,-2.73
2022-12-16T19:00:01.502Z,-2.64
2022-12-16T19:05:01.959Z,-2.66
2022-12-16T19:10:02.052Z,-2.64
2022-12-16T19:15:02.027Z,-2.65
2022-12-16T19:20:02.164Z,-2.69
2022-12-16T19:25:01.398Z,-2.73
2022-12-16T19:30:01.714Z,-2.66
2022-12-16T19:35:01.781Z,-2.67
2022-12-16T19:40:02.062Z,-2.71
2022-12-16T19:45:02.152Z,-2.65
2022-12-16T19:50:01.903Z,-2.66
2022-12-16T19:55:01.771Z,-2.59
2022-12-16T20:00:01.518Z,-2.59
2022-12-16T20:05:01.834Z,-2.54
2022-12-16T20:10:01.727Z,-2.5
2022-12-16T20:15:01.767Z,-2.49
2022-12-16T20:20:02.161Z,-2.49
2022-12-16T20:25:01.979Z,-2.47
2022-12-16T20:30:02.057Z,-2.43
2022-12-16T20:35:01.951Z,-2.45
2022-12-16T20:40:01.934Z,-2.43
2022-12-16T20:45:01.878Z,-2.59
2022-12-16T20:50:01.631Z,-2.38
2022-12-16T20:55:01.863Z,-2.39
2022-12-16T21:00:01.991Z,-2.58
2022-12-16T21:05:01.934Z,-2.5
2022-12-16T21:10:01.295Z,-2.51
2022-12-16T21:15:01.401Z,-2.47
2022-12-16T21:20:01.937Z,-2.5
2022-12-16T21:25:02.144Z,-2.56
2022-12-16T21:30:01.315Z,-2.44
2022-12-16T21:35:01.940Z,-2.43
2022-12-16T21:40:02.253Z,-2.39
2022-12-16T21:45:02.022Z,-2.37
2022-12-16T21:50:01.384Z,-2.41
2022-12-16T21:55:01.569Z,-2.33
2022-12-16T22:00:01.873Z,-2.34
2022-12-16T22:05:02.162Z,-2.35
2022-12-16T22:10:01.365Z,-2.36
2022-12-16T22:15:01.956Z,-2.32
2022-12-16T22:20:02.028Z,-2.33
2022-12-16T22:25:01.315Z,-2.33
2022-12-16T22:30:01.537Z,-2.45
2022-12-16T22:35:02.235Z,-2.38
2022-12-16T22:40:01.963Z,-2.36
2022-12-16T22:45:02.018Z,-2.32
2022-12-16T22:50:02.043Z,-2.48
2022-12-16T22:55:01.899Z,-2.35
2022-12-16T23:00:01.658Z,-2.41
2022-12-16T23:05:02.260Z,-2.32
2022-12-16T23:10:01.362Z,-2.48
2022-12-16T23:15:01.458Z,-2.38
2022-12-16T23:20:01.894Z,-2.42
2022-12-16T23:25:01.955Z,-2.42
2022-12-16T23:30:01.264Z,-2.52
2022-12-16T23:35:01.960Z,-2.28
2022-12-16T23:40:01.559Z,-2.28
2022-12-16T23:45:01.265Z,-2.28
2022-12-16T23:50:01.852Z,-2.27
2022-12-16T23:55:01.835Z,-2.26
